createdAt,value
2019-01-18T00:00:32.821Z,0.90
2019-01-18T00:01:34.820Z,0.90
2019-01-18T00:02:15.735Z,0.90
2019-01-18T00:02:53.615Z,0.90
2019-01-18T00:03:30.993Z,0.90
2019-01-18T00:04:09.137Z,0.80
2019-01-18T00:04:47.168Z,0.90
2019-01-18T00:05:24.649Z,0.90
2019-01-18T00:06:01.739Z,0.80
2019-01-18T00:06:38.925Z,0.80
2019-01-18T00:07:16.384Z,0.80
2019-01-18T00:07:53.439Z,0.80
2019-01-18T00:08:31.153Z,0.80
2019-01-18T00:09:09.431Z,0.80
2019-01-18T00:09:46.882Z,0.90
2019-01-18T00:10:24.203Z,0.90
2019-01-18T00:11:02.201Z,0.90
2019-01-18T00:11:40.046Z,0.80
2019-01-18T00:12:18.097Z,0.90
2019-01-18T00:12:56.172Z,0.90
2019-01-18T00:13:34.235Z,0.90
2019-01-18T00:14:12.014Z,0.80
2019-01-18T00:14:49.399Z,0.80
2019-01-18T00:15:27.787Z,0.80
2019-01-18T00:16:05.571Z,0.80
2019-01-18T00:16:43.289Z,0.80
2019-01-18T00:17:20.844Z,0.80
2019-01-18T00:17:58.751Z,0.80
2019-01-18T00:18:36.359Z,0.80
2019-01-18T00:19:13.943Z,0.80
2019-01-18T00:19:51.982Z,0.80
2019-01-18T00:20:29.687Z,0.80
2019-01-18T00:21:06.767Z,0.80
2019-01-18T00:21:44.643Z,0.80
2019-01-18T00:22:22.767Z,0.70
2019-01-18T00:22:59.857Z,0.70
2019-01-18T00:23:37.455Z,0.80
2019-01-18T00:24:15.177Z,0.80
2019-01-18T00:24:53.077Z,0.80
2019-01-18T00:25:30.517Z,0.80
2019-01-18T00:26:08.008Z,0.70
2019-01-18T00:26:45.691Z,0.70
2019-01-18T00:27:23.390Z,0.70
2019-01-18T00:28:01.081Z,0.70
2019-01-18T00:28:39.223Z,0.70
2019-01-18T00:29:16.633Z,0.70
2019-01-18T00:29:54.651Z,0.70
2019-01-18T00:30:32.535Z,0.70
2019-01-18T00:31:09.929Z,0.60
2019-01-18T00:31:47.975Z,0.70
2019-01-18T00:32:25.241Z,0.70
2019-01-18T00:33:03.365Z,0.70
2019-01-18T00:33:40.427Z,0.70
2019-01-18T00:34:18.095Z,0.70
2019-01-18T00:34:55.471Z,0.70
2019-01-18T00:35:33.197Z,0.60
2019-01-18T00:36:11.187Z,0.60
2019-01-18T00:36:48.627Z,0.60
2019-01-18T00:37:26.331Z,0.60
2019-01-18T00:38:04.145Z,0.60
2019-01-18T00:38:41.577Z,0.60
2019-01-18T00:39:19.619Z,0.60
2019-01-18T00:39:56.659Z,0.60
2019-01-18T00:40:34.683Z,0.60
2019-01-18T00:41:12.465Z,0.70
2019-01-18T00:41:49.990Z,0.70
2019-01-18T00:42:27.791Z,0.60
2019-01-18T00:43:04.719Z,0.60
2019-01-18T00:43:42.353Z,0.70
2019-01-18T00:44:19.788Z,0.60
2019-01-18T00:44:57.588Z,0.60
2019-01-18T00:45:35.431Z,0.60
2019-01-18T00:46:12.957Z,0.70
2019-01-18T00:46:50.763Z,0.60
2019-01-18T00:47:28.523Z,0.70
2019-01-18T00:48:06.327Z,0.70
2019-01-18T00:48:44.197Z,0.70
2019-01-18T00:49:21.675Z,0.70
2019-01-18T00:49:59.295Z,0.60
2019-01-18T00:50:36.867Z,0.60
2019-01-18T00:51:13.968Z,0.60
2019-01-18T00:51:51.707Z,0.60
2019-01-18T00:52:29.069Z,0.70
2019-01-18T00:53:06.796Z,0.60
2019-01-18T00:53:44.698Z,0.60
2019-01-18T00:54:22.428Z,0.60
2019-01-18T00:55:00.335Z,0.60
2019-01-18T00:55:38.158Z,0.60
2019-01-18T00:56:15.993Z,0.60
2019-01-18T00:56:54.089Z,0.60
2019-01-18T00:57:31.662Z,0.60
2019-01-18T00:58:09.552Z,0.60
2019-01-18T00:58:47.381Z,0.50
2019-01-18T00:59:25.126Z,0.50
2019-01-18T01:00:02.132Z,0.50
2019-01-18T01:00:39.630Z,0.50
2019-01-18T01:01:17.365Z,0.60
2019-01-18T01:01:54.467Z,0.60
2019-01-18T01:02:32.035Z,0.50
2019-01-18T01:03:10.122Z,0.50
2019-01-18T01:03:47.913Z,0.60
2019-01-18T01:04:25.426Z,0.50
2019-01-18T01:05:03.760Z,0.60
2019-01-18T01:05:41.241Z,0.50
2019-01-18T01:06:19.350Z,0.50
2019-01-18T01:06:57.163Z,0.60
2019-01-18T01:07:35.359Z,0.60
2019-01-18T01:08:13.141Z,0.50
2019-01-18T01:08:50.964Z,0.60
2019-01-18T01:09:28.997Z,0.60
2019-01-18T01:10:07.000Z,0.50
2019-01-18T01:10:45.104Z,0.50
2019-01-18T01:11:23.476Z,0.50
2019-01-18T01:12:00.140Z,0.50
2019-01-18T01:12:37.554Z,0.50
2019-01-18T01:13:15.648Z,0.50
2019-01-18T01:13:53.718Z,0.50
2019-01-18T01:14:31.195Z,0.50
2019-01-18T01:15:12.271Z,0.50
2019-01-18T01:15:50.420Z,0.50
2019-01-18T01:16:27.813Z,0.50
2019-01-18T01:17:06.099Z,0.40
2019-01-18T01:17:43.961Z,0.40
2019-01-18T01:18:21.791Z,0.40
2019-01-18T01:18:59.778Z,0.40
2019-01-18T01:19:37.461Z,0.40
2019-01-18T01:20:16.639Z,0.40
2019-01-18T01:20:54.420Z,0.40
2019-01-18T01:21:32.130Z,0.40
2019-01-18T01:22:10.427Z,0.40
2019-01-18T01:22:48.985Z,0.50
2019-01-18T01:23:27.069Z,0.50
2019-01-18T01:24:04.937Z,0.50
2019-01-18T01:24:43.159Z,0.50
2019-01-18T01:25:21.096Z,0.50
2019-01-18T01:25:58.555Z,0.50
2019-01-18T01:26:35.998Z,0.50
2019-01-18T01:27:13.436Z,0.50
2019-01-18T01:27:51.068Z,0.50
2019-01-18T01:28:29.052Z,0.50
2019-01-18T01:29:09.679Z,0.50
2019-01-18T01:29:47.456Z,0.50
2019-01-18T01:30:26.507Z,0.50
2019-01-18T01:31:05.512Z,0.50
2019-01-18T01:31:43.085Z,0.50
2019-01-18T01:32:20.473Z,0.50
2019-01-18T01:32:57.552Z,0.50
2019-01-18T01:33:35.862Z,0.50
2019-01-18T01:34:13.687Z,0.50
2019-01-18T01:34:50.695Z,0.50
2019-01-18T01:35:28.139Z,0.50
2019-01-18T01:36:05.712Z,0.50
2019-01-18T01:36:43.847Z,0.50
2019-01-18T01:37:21.696Z,0.50
2019-01-18T01:37:59.336Z,0.50
2019-01-18T01:38:37.059Z,0.50
2019-01-18T01:39:14.663Z,0.60
2019-01-18T01:39:52.128Z,0.50
2019-01-18T01:40:29.863Z,0.50
2019-01-18T01:41:07.403Z,0.50
2019-01-18T01:41:46.546Z,0.60
2019-01-18T01:42:24.184Z,0.50
2019-01-18T01:43:01.813Z,0.60
2019-01-18T01:43:39.703Z,0.60
2019-01-18T01:44:17.774Z,0.60
2019-01-18T01:44:55.346Z,0.60
2019-01-18T01:45:32.461Z,0.60
2019-01-18T01:46:10.178Z,0.60
2019-01-18T01:46:47.954Z,0.60
2019-01-18T01:47:25.835Z,0.60
2019-01-18T01:48:03.714Z,0.60
2019-01-18T01:48:42.242Z,0.50
2019-01-18T01:49:20.507Z,0.50
2019-01-18T01:49:58.033Z,0.50
2019-01-18T01:50:35.100Z,0.60
2019-01-18T01:51:13.240Z,0.50
2019-01-18T01:51:50.027Z,0.50
2019-01-18T01:52:27.831Z,0.50
2019-01-18T01:53:06.688Z,0.50
2019-01-18T01:53:44.454Z,0.60
2019-01-18T01:54:22.173Z,0.50
2019-01-18T01:55:00.093Z,0.50
2019-01-18T01:55:37.700Z,0.60
2019-01-18T01:56:15.556Z,0.50
2019-01-18T01:56:53.692Z,0.50
2019-01-18T01:57:30.780Z,0.50
2019-01-18T01:58:08.328Z,0.50
2019-01-18T01:58:46.259Z,0.50
2019-01-18T01:59:24.490Z,0.50
2019-01-18T02:00:02.241Z,0.50
2019-01-18T02:00:39.717Z,0.50
2019-01-18T02:01:17.495Z,0.50
2019-01-18T02:01:55.161Z,0.50
2019-01-18T02:02:32.999Z,0.60
2019-01-18T02:03:10.116Z,0.50
2019-01-18T02:03:47.695Z,0.50
2019-01-18T02:04:25.161Z,0.50
2019-01-18T02:05:03.244Z,0.50
2019-01-18T02:05:41.313Z,0.50
2019-01-18T02:06:19.288Z,0.60
2019-01-18T02:06:59.378Z,0.50
2019-01-18T02:07:37.114Z,0.50
2019-01-18T02:08:14.772Z,0.50
2019-01-18T02:08:52.060Z,0.60
2019-01-18T02:09:30.151Z,0.60
2019-01-18T02:10:09.298Z,0.60
2019-01-18T02:10:47.161Z,0.60
2019-01-18T02:11:24.749Z,0.60
2019-01-18T02:12:02.502Z,0.60
2019-01-18T02:12:40.645Z,0.60
2019-01-18T02:13:18.912Z,0.60
2019-01-18T02:13:56.930Z,0.60
2019-01-18T02:14:34.874Z,0.60
2019-01-18T02:15:14.690Z,0.60
2019-01-18T02:15:52.164Z,0.70
2019-01-18T02:16:29.516Z,0.60
2019-01-18T02:17:07.056Z,0.60
2019-01-18T02:17:44.888Z,0.70
2019-01-18T02:18:21.566Z,0.70
2019-01-18T02:18:59.252Z,0.70
2019-01-18T02:19:36.992Z,0.70
2019-01-18T02:20:16.290Z,0.70
2019-01-18T02:20:54.147Z,0.70
2019-01-18T02:21:31.828Z,0.70
2019-01-18T02:22:09.528Z,0.70
2019-01-18T02:22:47.234Z,0.70
2019-01-18T02:23:25.302Z,0.70
2019-01-18T02:24:02.682Z,0.70
2019-01-18T02:24:40.158Z,0.70
2019-01-18T02:25:17.620Z,0.70
2019-01-18T02:25:55.010Z,0.70
2019-01-18T02:26:32.108Z,0.70
2019-01-18T02:27:09.955Z,0.70
2019-01-18T02:27:47.735Z,0.70
2019-01-18T02:28:25.652Z,0.70
2019-01-18T02:29:03.620Z,0.70
2019-01-18T02:29:41.200Z,0.70
2019-01-18T02:30:29.637Z,0.70
2019-01-18T02:31:07.492Z,0.70
2019-01-18T02:31:45.568Z,0.80
2019-01-18T02:32:23.516Z,0.70
2019-01-18T02:33:00.476Z,0.70
2019-01-18T02:33:38.284Z,0.70
2019-01-18T02:34:15.617Z,0.70
2019-01-18T02:34:53.476Z,0.70
2019-01-18T02:35:31.663Z,0.70
2019-01-18T02:36:09.439Z,0.70
2019-01-18T02:36:47.417Z,0.70
2019-01-18T02:37:24.875Z,0.70
2019-01-18T02:38:02.349Z,0.70
2019-01-18T02:38:40.049Z,0.70
2019-01-18T02:39:17.525Z,0.70
2019-01-18T02:39:55.208Z,0.70
2019-01-18T02:40:32.931Z,0.70
2019-01-18T02:41:10.693Z,0.70
2019-01-18T02:41:47.777Z,0.70
2019-01-18T02:42:25.316Z,0.70
2019-01-18T02:43:02.688Z,0.70
2019-01-18T02:43:40.753Z,0.70
2019-01-18T02:44:18.446Z,0.70
2019-01-18T02:44:55.739Z,0.70
2019-01-18T02:45:33.746Z,0.80
2019-01-18T02:46:11.507Z,0.70
2019-01-18T02:46:49.655Z,0.80
2019-01-18T02:47:27.396Z,0.80
2019-01-18T02:48:04.975Z,0.80
2019-01-18T02:48:41.992Z,0.80
2019-01-18T02:49:19.068Z,0.80
2019-01-18T02:49:56.781Z,0.80
2019-01-18T02:50:33.938Z,0.80
2019-01-18T02:51:11.356Z,0.80
2019-01-18T02:51:48.732Z,0.80
2019-01-18T02:52:26.330Z,0.80
2019-01-18T02:53:04.112Z,0.80
2019-01-18T02:53:42.115Z,0.80
2019-01-18T02:54:20.117Z,0.80
2019-01-18T02:54:57.764Z,0.80
2019-01-18T02:55:35.933Z,0.80
2019-01-18T02:56:13.931Z,0.80
2019-01-18T02:56:51.888Z,0.80
2019-01-18T02:57:29.638Z,0.80
2019-01-18T02:58:07.344Z,0.80
2019-01-18T02:58:45.301Z,0.80
2019-01-18T02:59:22.680Z,0.70
2019-01-18T03:00:05.046Z,0.70
2019-01-18T03:00:39.977Z,0.70
2019-01-18T03:01:18.217Z,0.70
2019-01-18T03:01:55.751Z,0.70
2019-01-18T03:02:35.171Z,0.70
2019-01-18T03:03:12.855Z,0.70
2019-01-18T03:03:50.425Z,0.70
2019-01-18T03:04:28.351Z,0.70
2019-01-18T03:05:07.322Z,0.70
2019-01-18T03:05:45.100Z,0.70
2019-01-18T03:06:22.915Z,0.70
2019-01-18T03:07:00.420Z,0.70
2019-01-18T03:07:38.512Z,0.70
2019-01-18T03:08:16.315Z,0.70
2019-01-18T03:08:54.394Z,0.70
2019-01-18T03:09:32.312Z,0.70
2019-01-18T03:10:13.137Z,0.70
2019-01-18T03:10:50.638Z,0.70
2019-01-18T03:11:28.325Z,0.70
2019-01-18T03:12:06.187Z,0.70
2019-01-18T03:12:43.905Z,0.70
2019-01-18T03:13:21.028Z,0.70
2019-01-18T03:13:58.789Z,0.70
2019-01-18T03:14:36.224Z,0.70
2019-01-18T03:15:14.574Z,0.70
2019-01-18T03:15:52.428Z,0.70
2019-01-18T03:16:30.102Z,0.70
2019-01-18T03:17:08.086Z,0.70
2019-01-18T03:17:45.654Z,0.70
2019-01-18T03:18:23.528Z,0.70
2019-01-18T03:19:01.274Z,0.70
2019-01-18T03:19:39.074Z,0.70
2019-01-18T03:20:17.335Z,0.70
2019-01-18T03:20:54.496Z,0.70
2019-01-18T03:21:32.050Z,0.70
2019-01-18T03:22:09.828Z,0.70
2019-01-18T03:22:47.926Z,0.70
2019-01-18T03:23:25.404Z,0.70
2019-01-18T03:24:03.287Z,0.70
2019-01-18T03:24:40.606Z,0.70
2019-01-18T03:25:23.170Z,0.70
2019-01-18T03:26:00.850Z,0.70
2019-01-18T03:26:38.259Z,0.60
2019-01-18T03:27:14.973Z,0.60
2019-01-18T03:27:52.484Z,0.60
2019-01-18T03:28:29.950Z,0.60
2019-01-18T03:29:07.427Z,0.50
2019-01-18T03:29:45.552Z,0.50
2019-01-18T03:30:22.790Z,0.50
2019-01-18T03:31:00.822Z,0.40
2019-01-18T03:31:38.544Z,0.40
2019-01-18T03:32:16.257Z,0.40
2019-01-18T03:32:54.660Z,0.40
2019-01-18T03:33:32.158Z,0.30
2019-01-18T03:34:09.818Z,0.30
2019-01-18T03:34:47.536Z,0.30
2019-01-18T03:35:25.179Z,0.30
2019-01-18T03:36:02.960Z,0.30
2019-01-18T03:36:40.746Z,0.20
2019-01-18T03:37:18.635Z,0.20
2019-01-18T03:37:56.390Z,0.20
2019-01-18T03:38:34.144Z,0.20
2019-01-18T03:39:12.220Z,0.10
2019-01-18T03:39:50.084Z,0.10
2019-01-18T03:40:27.704Z,0.00
2019-01-18T03:41:05.657Z,0.00
2019-01-18T03:41:43.399Z,0.00
2019-01-18T03:42:21.124Z,0.00
2019-01-18T03:42:58.682Z,0.00
2019-01-18T03:43:36.188Z,-0.10
2019-01-18T03:44:13.592Z,0.00
2019-01-18T03:44:50.936Z,0.00
2019-01-18T03:45:28.478Z,0.00
2019-01-18T03:46:06.513Z,-0.10
2019-01-18T03:46:44.175Z,0.00
2019-01-18T03:47:21.570Z,0.00
2019-01-18T03:47:59.188Z,0.00
2019-01-18T03:48:36.528Z,0.00
2019-01-18T03:49:14.140Z,0.00
2019-01-18T03:49:51.927Z,0.00
2019-01-18T03:50:29.780Z,0.00
2019-01-18T03:51:07.538Z,0.00
2019-01-18T03:51:45.593Z,0.00
2019-01-18T03:52:23.036Z,0.00
2019-01-18T03:53:00.762Z,0.00
2019-01-18T03:53:38.850Z,-0.10
2019-01-18T03:54:16.952Z,0.00
2019-01-18T03:54:54.672Z,0.00
2019-01-18T03:55:32.407Z,-0.10
2019-01-18T03:56:10.097Z,0.00
2019-01-18T03:56:47.775Z,0.00
2019-01-18T03:57:25.158Z,0.00
2019-01-18T03:58:02.801Z,0.00
2019-01-18T03:58:40.646Z,0.00
2019-01-18T03:59:18.023Z,0.00
2019-01-18T04:00:15.929Z,0.00
2019-01-18T04:00:53.953Z,0.10
2019-01-18T04:01:31.602Z,0.10
2019-01-18T04:02:09.190Z,0.10
2019-01-18T04:02:47.103Z,0.10
2019-01-18T04:03:24.856Z,0.10
2019-01-18T04:04:02.229Z,0.10
2019-01-18T04:04:40.644Z,0.10
2019-01-18T04:05:18.461Z,0.10
2019-01-18T04:05:55.496Z,0.10
2019-01-18T04:06:33.400Z,0.10
2019-01-18T04:07:10.756Z,0.10
2019-01-18T04:07:48.674Z,0.00
2019-01-18T04:08:26.018Z,0.00
2019-01-18T04:09:03.704Z,0.00
2019-01-18T04:09:41.714Z,0.00
2019-01-18T04:10:20.472Z,-0.10
2019-01-18T04:10:58.292Z,-0.10
2019-01-18T04:11:36.152Z,-0.10
2019-01-18T04:12:13.250Z,-0.10
2019-01-18T04:12:57.131Z,-0.10
2019-01-18T04:13:35.095Z,-0.10
2019-01-18T04:14:12.768Z,-0.20
2019-01-18T04:14:50.224Z,-0.20
2019-01-18T04:15:28.374Z,-0.20
2019-01-18T04:16:05.804Z,-0.20
2019-01-18T04:16:43.277Z,-0.20
2019-01-18T04:17:21.060Z,-0.20
2019-01-18T04:18:17.596Z,-0.20
2019-01-18T04:18:54.590Z,-0.20
2019-01-18T04:19:32.343Z,-0.10
2019-01-18T04:20:10.765Z,-0.20
2019-01-18T04:20:48.524Z,-0.10
2019-01-18T04:21:25.707Z,-0.20
2019-01-18T04:22:03.211Z,-0.20
2019-01-18T04:22:41.402Z,-0.20
2019-01-18T04:23:19.262Z,-0.10
2019-01-18T04:23:56.672Z,-0.20
2019-01-18T04:24:34.753Z,-0.20
2019-01-18T04:25:15.505Z,-0.20
2019-01-18T04:25:53.087Z,-0.20
2019-01-18T04:26:30.757Z,-0.20
2019-01-18T04:27:08.471Z,-0.20
2019-01-18T04:27:45.902Z,-0.30
2019-01-18T04:28:23.802Z,-0.30
2019-01-18T04:29:01.521Z,-0.30
2019-01-18T04:29:39.600Z,-0.30
2019-01-18T04:30:19.036Z,-0.30
2019-01-18T04:30:56.722Z,-0.30
2019-01-18T04:31:34.538Z,-0.40
2019-01-18T04:32:12.601Z,-0.40
2019-01-18T04:32:50.350Z,-0.40
2019-01-18T04:33:28.034Z,-0.50
2019-01-18T04:34:05.513Z,-0.50
2019-01-18T04:34:43.164Z,-0.50
2019-01-18T04:35:20.913Z,-0.50
2019-01-18T04:35:57.982Z,-0.50
2019-01-18T04:36:36.112Z,-0.50
2019-01-18T04:37:13.516Z,-0.50
2019-01-18T04:37:51.648Z,-0.50
2019-01-18T04:38:29.598Z,-0.60
2019-01-18T04:39:08.041Z,-0.50
2019-01-18T04:39:45.200Z,-0.60
2019-01-18T04:40:25.109Z,-0.60
2019-01-18T04:41:03.122Z,-0.60
2019-01-18T04:41:40.481Z,-0.70
2019-01-18T04:42:17.955Z,-0.70
2019-01-18T04:42:55.832Z,-0.70
2019-01-18T04:43:33.732Z,-0.70
2019-01-18T04:44:11.700Z,-0.70
2019-01-18T04:44:49.777Z,-0.70
2019-01-18T04:45:27.499Z,-0.70
2019-01-18T04:46:05.084Z,-0.70
2019-01-18T04:46:42.856Z,-0.70
2019-01-18T04:47:20.582Z,-0.70
2019-01-18T04:47:58.248Z,-0.60
2019-01-18T04:48:36.193Z,-0.60
2019-01-18T04:49:13.943Z,-0.60
2019-01-18T04:49:51.412Z,-0.60
2019-01-18T04:50:29.598Z,-0.60
2019-01-18T04:51:07.830Z,-0.60
2019-01-18T04:51:45.575Z,-0.60
2019-01-18T04:52:23.349Z,-0.60
2019-01-18T04:53:01.186Z,-0.60
2019-01-18T04:53:39.178Z,-0.60
2019-01-18T04:54:15.908Z,-0.60
2019-01-18T04:54:53.160Z,-0.70
2019-01-18T04:55:30.743Z,-0.70
2019-01-18T04:56:07.842Z,-0.70
2019-01-18T04:56:45.806Z,-0.70
2019-01-18T04:57:22.977Z,-0.70
2019-01-18T04:58:00.141Z,-0.70
2019-01-18T04:58:37.830Z,-0.60
2019-01-18T04:59:15.562Z,-0.60
2019-01-18T04:59:52.598Z,-0.70
2019-01-18T05:00:32.101Z,-0.70
2019-01-18T05:01:09.073Z,-0.70
2019-01-18T05:01:46.523Z,-0.70
2019-01-18T05:02:24.601Z,-0.70
2019-01-18T05:03:02.401Z,-0.70
2019-01-18T05:03:40.192Z,-0.70
2019-01-18T05:04:17.765Z,-0.80
2019-01-18T05:04:55.789Z,-0.80
2019-01-18T05:05:33.596Z,-0.80
2019-01-18T05:06:11.073Z,-0.80
2019-01-18T05:06:49.300Z,-0.90
2019-01-18T05:07:27.288Z,-0.80
2019-01-18T05:08:05.138Z,-0.90
2019-01-18T05:08:42.738Z,-0.90
2019-01-18T05:09:20.420Z,-0.90
2019-01-18T05:09:57.889Z,-0.90
2019-01-18T05:10:35.375Z,-0.90
2019-01-18T05:11:13.468Z,-0.90
2019-01-18T05:11:51.195Z,-0.90
2019-01-18T05:12:28.859Z,-0.90
2019-01-18T05:13:06.606Z,-0.90
2019-01-18T05:13:44.166Z,-0.90
2019-01-18T05:14:21.885Z,-0.90
2019-01-18T05:14:59.987Z,-0.90
2019-01-18T05:15:38.038Z,-0.90
2019-01-18T05:16:16.204Z,-0.90
2019-01-18T05:16:54.161Z,-0.90
2019-01-18T05:17:31.845Z,-1.00
2019-01-18T05:18:09.631Z,-0.90
2019-01-18T05:18:47.867Z,-1.00
2019-01-18T05:19:25.751Z,-1.00
2019-01-18T05:20:02.442Z,-1.00
2019-01-18T05:20:40.303Z,-1.00
2019-01-18T05:21:18.188Z,-1.00
2019-01-18T05:21:55.861Z,-1.00
2019-01-18T05:22:33.844Z,-1.00
2019-01-18T05:23:11.402Z,-1.00
2019-01-18T05:23:49.185Z,-1.00
2019-01-18T05:24:27.280Z,-1.00
2019-01-18T05:25:06.851Z,-0.90
2019-01-18T05:25:44.431Z,-0.90
2019-01-18T05:26:22.525Z,-0.90
2019-01-18T05:27:00.157Z,-0.90
2019-01-18T05:27:38.372Z,-0.90
2019-01-18T05:28:16.583Z,-0.80
2019-01-18T05:28:57.219Z,-0.80
2019-01-18T05:29:35.040Z,-0.80
2019-01-18T05:30:18.561Z,-0.80
2019-01-18T05:30:56.405Z,-0.80
2019-01-18T05:31:33.974Z,-0.80
2019-01-18T05:32:11.454Z,-0.80
2019-01-18T05:32:49.365Z,-0.70
2019-01-18T05:33:27.206Z,-0.70
2019-01-18T05:34:05.022Z,-0.70
2019-01-18T05:34:42.803Z,-0.70
2019-01-18T05:35:20.518Z,-0.70
2019-01-18T05:35:58.279Z,-0.70
2019-01-18T05:36:36.263Z,-0.70
2019-01-18T05:37:14.032Z,-0.70
2019-01-18T05:37:51.987Z,-0.70
2019-01-18T05:38:29.248Z,-0.60
2019-01-18T05:39:08.609Z,-0.70
2019-01-18T05:39:45.304Z,-0.70
2019-01-18T05:40:22.758Z,-0.60
2019-01-18T05:41:00.373Z,-0.60
2019-01-18T05:41:37.931Z,-0.60
2019-01-18T05:42:15.461Z,-0.60
2019-01-18T05:42:53.081Z,-0.60
2019-01-18T05:43:30.956Z,-0.60
2019-01-18T05:44:08.867Z,-0.60
2019-01-18T05:44:46.751Z,-0.60
2019-01-18T05:45:24.853Z,-0.60
2019-01-18T05:46:02.332Z,-0.60
2019-01-18T05:46:39.707Z,-0.60
2019-01-18T05:47:18.515Z,-0.50
2019-01-18T05:47:56.198Z,-0.50
2019-01-18T05:48:33.335Z,-0.50
2019-01-18T05:49:10.846Z,-0.50
2019-01-18T05:49:48.839Z,-0.50
2019-01-18T05:50:28.289Z,-0.50
2019-01-18T05:51:06.571Z,-0.50
2019-01-18T05:51:44.499Z,-0.50
2019-01-18T05:52:21.932Z,-0.50
2019-01-18T05:53:02.294Z,-0.50
2019-01-18T05:53:39.993Z,-0.50
2019-01-18T05:54:17.906Z,-0.50
2019-01-18T05:54:55.596Z,-0.60
2019-01-18T05:55:33.058Z,-0.60
2019-01-18T05:56:10.931Z,-0.60
2019-01-18T05:56:48.674Z,-0.60
2019-01-18T05:57:26.448Z,-0.60
2019-01-18T05:58:04.915Z,-0.60
2019-01-18T05:58:42.703Z,-0.60
2019-01-18T05:59:20.378Z,-0.60
2019-01-18T05:59:58.983Z,-0.50
2019-01-18T06:00:46.605Z,-0.50
2019-01-18T06:01:23.726Z,-0.50
2019-01-18T06:02:01.841Z,-0.50
2019-01-18T06:02:40.019Z,-0.50
2019-01-18T06:03:17.259Z,-0.50
2019-01-18T06:03:55.347Z,-0.60
2019-01-18T06:04:33.679Z,-0.60
2019-01-18T06:05:12.818Z,-0.60
2019-01-18T06:05:50.376Z,-0.60
2019-01-18T06:06:28.429Z,-0.60
2019-01-18T06:07:06.616Z,-0.60
2019-01-18T06:07:44.679Z,-0.60
2019-01-18T06:08:22.147Z,-0.70
2019-01-18T06:08:59.311Z,-0.70
2019-01-18T06:09:37.155Z,-0.70
2019-01-18T06:10:15.055Z,-0.70
2019-01-18T06:10:52.176Z,-0.80
2019-01-18T06:11:29.701Z,-0.80
2019-01-18T06:12:07.511Z,-0.80
2019-01-18T06:12:45.012Z,-0.80
2019-01-18T06:13:22.878Z,-0.80
2019-01-18T06:14:00.529Z,-0.80
2019-01-18T06:14:37.785Z,-0.80
2019-01-18T06:15:15.339Z,-0.80
2019-01-18T06:15:52.590Z,-0.80
2019-01-18T06:16:30.123Z,-0.80
2019-01-18T06:17:07.719Z,-0.80
2019-01-18T06:17:45.385Z,-0.80
2019-01-18T06:18:22.987Z,-0.80
2019-01-18T06:19:00.919Z,-0.80
2019-01-18T06:19:38.503Z,-0.80
2019-01-18T06:20:16.789Z,-0.90
2019-01-18T06:20:54.975Z,-0.80
2019-01-18T06:21:32.677Z,-0.90
2019-01-18T06:22:10.523Z,-0.90
2019-01-18T06:22:48.419Z,-0.90
2019-01-18T06:23:25.937Z,-0.90
2019-01-18T06:24:03.317Z,-0.90
2019-01-18T06:24:41.154Z,-0.90
2019-01-18T06:25:18.369Z,-0.90
2019-01-18T06:25:56.371Z,-1.00
2019-01-18T06:26:33.839Z,-0.90
2019-01-18T06:27:11.361Z,-0.90
2019-01-18T06:27:49.551Z,-0.90
2019-01-18T06:28:27.330Z,-0.90
2019-01-18T06:29:04.891Z,-0.90
2019-01-18T06:29:41.675Z,-0.90
2019-01-18T06:30:19.323Z,-0.90
2019-01-18T06:31:01.681Z,-0.90
2019-01-18T06:31:36.547Z,-0.90
2019-01-18T06:32:14.353Z,-0.90
2019-01-18T06:32:51.912Z,-0.90
2019-01-18T06:33:29.977Z,-0.90
2019-01-18T06:34:07.576Z,-0.90
2019-01-18T06:34:45.169Z,-1.00
2019-01-18T06:35:22.943Z,-1.00
2019-01-18T06:36:00.872Z,-1.00
2019-01-18T06:36:38.783Z,-1.00
2019-01-18T06:37:16.309Z,-1.00
2019-01-18T06:37:53.384Z,-1.00
2019-01-18T06:38:31.053Z,-1.00
2019-01-18T06:39:09.159Z,-1.00
2019-01-18T06:39:47.071Z,-1.00
2019-01-18T06:40:24.822Z,-1.00
2019-01-18T06:41:11.894Z,-1.00
2019-01-18T06:41:53.266Z,-1.00
2019-01-18T06:42:30.739Z,-1.00
2019-01-18T06:43:08.601Z,-1.00
2019-01-18T06:43:45.599Z,-1.00
2019-01-18T06:44:23.761Z,-1.00
2019-01-18T06:45:01.984Z,-1.00
2019-01-18T06:45:40.064Z,-1.00
2019-01-18T06:46:18.029Z,-1.00
2019-01-18T06:46:55.593Z,-1.00
2019-01-18T06:47:33.468Z,-1.00
2019-01-18T06:48:13.406Z,-1.00
2019-01-18T06:48:52.435Z,-1.00
2019-01-18T06:49:29.825Z,-1.00
2019-01-18T06:50:10.357Z,-1.00
2019-01-18T06:50:48.199Z,-1.00
2019-01-18T06:51:26.130Z,-1.00
2019-01-18T06:52:04.019Z,-1.10
2019-01-18T06:52:42.155Z,-1.10
2019-01-18T06:53:19.683Z,-1.10
2019-01-18T06:53:57.436Z,-1.10
2019-01-18T06:54:35.597Z,-1.10
2019-01-18T06:55:13.529Z,-1.20
2019-01-18T06:55:51.695Z,-1.10
2019-01-18T06:56:29.670Z,-1.20
2019-01-18T06:57:07.988Z,-1.20
2019-01-18T06:57:45.913Z,-1.20
2019-01-18T06:58:23.925Z,-1.20
2019-01-18T06:59:02.052Z,-1.20
2019-01-18T06:59:39.143Z,-1.20
2019-01-18T07:00:19.867Z,-1.20
2019-01-18T07:00:57.808Z,-1.20
2019-01-18T07:01:35.435Z,-1.20
2019-01-18T07:02:13.239Z,-1.20
2019-01-18T07:02:50.736Z,-1.20
2019-01-18T07:03:27.895Z,-1.20
2019-01-18T07:04:05.411Z,-1.20
2019-01-18T07:04:43.011Z,-1.20
2019-01-18T07:05:20.769Z,-1.20
2019-01-18T07:05:58.647Z,-1.20
2019-01-18T07:06:35.855Z,-1.20
2019-01-18T07:07:13.335Z,-1.20
2019-01-18T07:07:50.550Z,-1.20
2019-01-18T07:08:28.217Z,-1.20
2019-01-18T07:09:08.973Z,-1.30
2019-01-18T07:09:47.038Z,-1.30
2019-01-18T07:10:26.573Z,-1.30
2019-01-18T07:11:04.451Z,-1.30
2019-01-18T07:11:42.676Z,-1.30
2019-01-18T07:12:20.538Z,-1.30
2019-01-18T07:12:58.113Z,-1.30
2019-01-18T07:13:36.005Z,-1.30
2019-01-18T07:14:13.170Z,-1.30
2019-01-18T07:14:50.600Z,-1.30
2019-01-18T07:15:28.099Z,-1.30
2019-01-18T07:16:05.971Z,-1.30
2019-01-18T07:16:43.552Z,-1.30
2019-01-18T07:17:21.073Z,-1.30
2019-01-18T07:17:58.305Z,-1.30
2019-01-18T07:18:35.483Z,-1.30
2019-01-18T07:19:12.523Z,-1.30
2019-01-18T07:19:50.077Z,-1.30
2019-01-18T07:20:27.620Z,-1.20
2019-01-18T07:21:05.439Z,-1.30
2019-01-18T07:21:42.510Z,-1.20
2019-01-18T07:22:19.891Z,-1.20
2019-01-18T07:22:57.629Z,-1.20
2019-01-18T07:23:35.157Z,-1.20
2019-01-18T07:24:12.884Z,-1.20
2019-01-18T07:24:50.939Z,-1.30
2019-01-18T07:25:30.167Z,-1.30
2019-01-18T07:26:07.723Z,-1.30
2019-01-18T07:26:45.101Z,-1.30
2019-01-18T07:27:23.101Z,-1.30
2019-01-18T07:28:00.835Z,-1.30
2019-01-18T07:28:38.784Z,-1.30
2019-01-18T07:29:16.463Z,-1.30
2019-01-18T07:29:54.155Z,-1.30
2019-01-18T07:30:39.924Z,-1.30
2019-01-18T07:31:17.386Z,-1.30
2019-01-18T07:31:54.966Z,-1.30
2019-01-18T07:32:32.747Z,-1.30
2019-01-18T07:33:12.561Z,-1.30
2019-01-18T07:33:50.115Z,-1.30
2019-01-18T07:34:27.885Z,-1.30
2019-01-18T07:35:06.309Z,-1.30
2019-01-18T07:35:43.993Z,-1.30
2019-01-18T07:36:21.757Z,-1.30
2019-01-18T07:36:59.772Z,-1.30
2019-01-18T07:37:37.550Z,-1.30
2019-01-18T07:38:15.935Z,-1.30
2019-01-18T07:39:00.384Z,-1.30
2019-01-18T07:39:33.726Z,-1.30
2019-01-18T07:40:12.052Z,-1.30
2019-01-18T07:40:50.194Z,-1.30
2019-01-18T07:41:28.313Z,-1.30
2019-01-18T07:42:06.304Z,-1.30
2019-01-18T07:42:43.912Z,-1.30
2019-01-18T07:43:22.123Z,-1.30
2019-01-18T07:43:59.970Z,-1.30
2019-01-18T07:44:37.856Z,-1.30
2019-01-18T07:45:20.554Z,-1.30
2019-01-18T07:45:58.442Z,-1.30
2019-01-18T07:46:36.230Z,-1.30
2019-01-18T07:47:13.613Z,-1.30
2019-01-18T07:47:51.135Z,-1.30
2019-01-18T07:48:28.747Z,-1.30
2019-01-18T07:49:06.360Z,-1.30
2019-01-18T07:49:44.369Z,-1.30
2019-01-18T07:50:22.046Z,-1.30
2019-01-18T07:50:59.190Z,-1.30
2019-01-18T07:51:37.266Z,-1.30
2019-01-18T07:52:15.204Z,-1.30
2019-01-18T07:52:52.752Z,-1.30
2019-01-18T07:53:31.961Z,-1.30
2019-01-18T07:54:12.010Z,-1.30
2019-01-18T07:54:49.744Z,-1.30
2019-01-18T07:55:27.478Z,-1.30
2019-01-18T07:56:05.744Z,-1.30
2019-01-18T07:56:44.006Z,-1.30
2019-01-18T07:57:21.843Z,-1.30
2019-01-18T07:57:59.339Z,-1.30
2019-01-18T07:58:37.106Z,-1.20
2019-01-18T07:59:15.988Z,-1.20
2019-01-18T07:59:53.574Z,-1.20
2019-01-18T08:00:31.816Z,-1.20
2019-01-18T08:01:09.311Z,-1.20
2019-01-18T08:01:46.821Z,-1.20
2019-01-18T08:02:24.504Z,-1.20
2019-01-18T08:03:02.564Z,-1.20
2019-01-18T08:03:39.628Z,-1.20
2019-01-18T08:04:17.788Z,-1.20
2019-01-18T08:04:55.682Z,-1.10
2019-01-18T08:05:33.906Z,-1.10
2019-01-18T08:06:11.761Z,-1.10
2019-01-18T08:06:49.336Z,-1.10
2019-01-18T08:07:27.002Z,-1.10
2019-01-18T08:08:04.956Z,-1.10
2019-01-18T08:08:42.850Z,-1.10
2019-01-18T08:09:20.722Z,-1.10
2019-01-18T08:09:58.196Z,-1.00
2019-01-18T08:10:36.135Z,-1.00
2019-01-18T08:11:13.603Z,-1.00
2019-01-18T08:11:51.407Z,-1.00
2019-01-18T08:12:29.740Z,-1.00
2019-01-18T08:13:07.742Z,-1.00
2019-01-18T08:13:45.792Z,-1.00
2019-01-18T08:14:23.412Z,-1.00
2019-01-18T08:15:01.158Z,-1.00
2019-01-18T08:15:41.558Z,-0.90
2019-01-18T08:16:18.988Z,-0.90
2019-01-18T08:16:56.504Z,-0.90
2019-01-18T08:17:34.630Z,-0.90